Time;durP1;ratioP1;P1;durP2;ratioP2;P2;SDS_P1;SDS_P2;PMS_P1;PMS_P2;Temp;Humidity;BMP_temperature;BMP_pressure;BME280_temperature;BME280_humidity;BME280_pressure;Samples;Min_cycle;Max_cycle;Signal;HPM_P1;HPM_P2
2021/12/10 00:01:49;;;;;;;;;;;9.40;99.90;;;;;;5055909;28;20473;-75
2021/12/10 00:04:17;;;;;;;4.07;0.90;;;9.40;99.90;;;;;;5037174;28;19904;-76
2021/12/10 00:06:48;;;;;;;11.02;0.93;;;9.30;99.90;;;;;;5055607;28;20024;-76
2021/12/10 00:09:40;;;;;;;3.97;1.00;;;9.30;99.90;;;;;;5055268;28;20035;-76
2021/12/10 00:12:11;;;;;;;6.32;1.30;;;9.20;99.90;;;;;;5055374;28;20040;-76
2021/12/10 00:14:39;;;;;;;6.70;0.93;;;9.20;99.90;;;;;;5037090;28;20446;-76
2021/12/10 00:17:08;;;;;;;4.65;0.73;;;9.20;99.90;;;;;;5055472;28;20025;-76
2021/12/10 00:19:40;;;;;;;6.20;0.82;;;9.20;99.90;;;;;;5054957;28;20385;-76
2021/12/10 00:22:11;;;;;;;5.85;0.93;;;9.10;99.90;;;;;;5055373;28;20025;-76
2021/12/10 00:24:40;;;;;;;5.25;0.95;;;9.20;99.90;;;;;;5055130;28;20116;-75
2021/12/10 00:27:08;;;;;;;11.18;1.77;;;9.20;99.90;;;;;;5054780;28;20025;-77
2021/12/10 00:29:38;;;;;;;16.05;1.52;;;9.20;99.90;;;;;;5036479;28;20124;-76
2021/12/10 00:32:16;;;;;;;12.25;1.80;;;9.20;99.90;;;;;;5054628;28;20033;-76
2021/12/10 00:34:49;;;;;;;8.18;1.15;;;9.30;99.90;;;;;;5036884;28;20496;-75
2021/12/10 00:37:19;;;;;;;5.72;1.15;;;9.30;99.90;;;;;;5054974;28;20029;-76
2021/12/10 00:39:52;;;;;;;8.50;1.00;;;9.40;99.90;;;;;;5054084;28;20025;-76
2021/12/10 00:42:21;;;;;;;8.05;0.98;;;9.40;99.90;;;;;;5054586;28;20070;-76
2021/12/10 00:44:48;;;;;;;7.47;1.30;;;9.40;99.90;;;;;;5054176;28;20029;-75
2021/12/10 00:47:14;;;;;;;;;;;9.40;99.90;;;;;;5054819;28;20386;-76
2021/12/10 00:49:41;;;;;;;9.63;1.27;;;9.40;99.90;;;;;;5036105;28;19909;-76
2021/12/10 00:52:12;;;;;;;7.90;1.20;;;9.40;99.90;;;;;;5054051;28;20033;-75
2021/12/10 00:54:38;;;;;;;5.40;0.98;;;9.30;99.90;;;;;;5036210;28;20029;-77
2021/12/10 00:57:06;;;;;;;6.55;1.13;;;9.30;99.90;;;;;;5054375;28;20025;-75
2021/12/10 00:59:33;;;;;;;8.88;1.33;;;9.30;99.90;;;;;;5054666;28;20025;-75
2021/12/10 01:02:00;;;;;;;10.13;1.40;;;9.20;99.90;;;;;;5054602;28;20025;-76
2021/12/10 01:04:35;;;;;;;10.57;2.10;;;9.30;99.90;;;;;;5054540;28;20370;-75
2021/12/10 01:07:06;;;;;;;4.38;1.10;;;9.30;99.90;;;;;;5054926;28;20028;-75
2021/12/10 01:09:37;;;;;;;6.45;1.10;;;9.30;99.90;;;;;;5054820;28;20025;-75
2021/12/10 01:12:06;;;;;;;13.82;2.47;;;9.30;99.90;;;;;;5054452;28;20032;-76
2021/12/10 01:25:54;;;;;;;12.20;1.48;;;9.10;99.90;;;;;;5054168;28;20087;-76
2021/12/10 01:28:22;;;;;;;12.70;1.98;;;9.20;99.90;;;;;;5054253;28;20033;-76
2021/12/10 01:30:48;;;;;;;12.30;1.35;;;9.10;99.90;;;;;;5053737;28;20128;-76
2021/12/10 01:33:18;;;;;;;12.50;1.60;;;9.00;99.90;;;;;;5054074;28;20468;-75
2021/12/10 01:35:53;;;;;;;9.55;1.52;;;9.00;99.90;;;;;;5053601;28;20045;-76
2021/12/10 01:38:21;;;;;;;13.48;1.83;;;9.00;99.90;;;;;;5053587;28;20068;-75
2021/12/10 01:40:51;;;;;;;9.20;1.50;;;9.10;99.90;;;;;;5053435;28;20021;-75
2021/12/10 01:43:23;;;;;;;16.33;1.73;;;9.20;99.90;;;;;;5053716;28;20025;-75
2021/12/10 01:46:05;;;;;;;8.07;1.48;;;9.20;99.90;;;;;;5053645;28;20075;-76
2021/12/10 01:48:39;;;;;;;15.10;1.90;;;9.20;99.90;;;;;;5053811;28;20032;-74
2021/12/10 01:51:07;;;;;;;9.55;1.63;;;9.20;99.90;;;;;;5035225;28;20025;-75
2021/12/10 01:53:37;;;;;;;13.75;2.67;;;9.30;99.90;;;;;;5053391;28;20047;-74
2021/12/10 01:56:14;;;;;;;16.13;1.73;;;9.20;99.90;;;;;;5053729;28;20100;-75
2021/12/10 01:58:41;;;;;;;14.55;1.98;;;9.30;99.90;;;;;;5035741;28;20483;-75
2021/12/10 02:01:12;;;;;;;14.32;1.80;;;9.30;99.90;;;;;;5053496;28;20025;-75
2021/12/10 02:03:39;;;;;;;17.05;2.38;;;9.40;99.90;;;;;;5035637;28;20135;-75
2021/12/10 02:06:07;;;;;;;9.23;1.60;;;9.30;99.90;;;;;;5053701;28;20527;-75
2021/12/10 02:08:35;;;;;;;10.02;1.42;;;9.40;99.90;;;;;;5053357;28;20466;-76
2021/12/10 02:11:02;;;;;;;14.65;1.80;;;9.40;99.90;;;;;;5053070;28;20449;-75
2021/12/10 02:13:28;;;;;;;13.95;1.98;;;9.40;99.90;;;;;;5052921;28;20338;-76
2021/12/10 02:15:56;;;;;;;11.15;2.08;;;9.50;99.90;;;;;;5052844;28;20470;-75
2021/12/10 02:18:23;;;;;;;16.20;2.10;;;9.50;99.90;;;;;;5053438;28;20109;-76
2021/12/10 02:21:02;;;;;;;18.98;1.55;;;9.50;99.90;;;;;;5053202;28;20028;-75
2021/12/10 02:23:37;;;;;;;11.77;1.77;;;9.50;99.90;;;;;;5052924;28;20024;-75
2021/12/10 02:26:10;;;;;;;18.45;2.47;;;9.60;99.90;;;;;;5053489;28;20445;-75
2021/12/10 02:28:37;;;;;;;15.48;1.77;;;9.60;99.90;;;;;;5053367;28;20024;-75
2021/12/10 02:31:04;;;;;;;;;;;9.60;99.90;;;;;;5034987;28;20098;-75
2021/12/10 02:33:30;;;;;;;14.82;2.08;;;9.60;99.90;;;;;;5053031;28;20019;-75
2021/12/10 02:35:57;;;;;;;12.10;1.80;;;9.50;99.90;;;;;;5052632;28;20013;-75
2021/12/10 02:38:24;;;;;;;11.53;1.80;;;9.50;99.90;;;;;;5052852;28;20037;-75
2021/12/10 02:40:53;;;;;;;18.70;1.98;;;9.50;99.90;;;;;;5034748;28;20029;-74
2021/12/10 02:43:21;;;;;;;14.85;1.83;;;9.50;99.90;;;;;;5052478;28;20025;-75
2021/12/10 02:45:53;;;;;;;13.13;2.20;;;9.50;99.90;;;;;;5052434;28;20021;-75
2021/12/10 02:48:19;;;;;;;17.02;2.70;;;9.50;99.90;;;;;;5052810;28;20092;-75
2021/12/10 02:50:48;;;;;;;17.67;2.03;;;9.50;99.90;;;;;;5052170;28;20029;-75
2021/12/10 02:53:16;;;;;;;16.33;1.75;;;9.50;99.90;;;;;;5052215;28;20039;-75
2021/12/10 02:55:44;;;;;;;18.58;2.65;;;9.50;99.90;;;;;;5052105;28;20047;-75
2021/12/10 02:58:12;;;;;;;15.13;2.20;;;9.50;99.90;;;;;;5052210;28;20029;-75
2021/12/10 03:00:46;;;;;;;14.13;1.92;;;9.50;99.90;;;;;;5052333;28;20354;-75
2021/12/10 03:03:13;;;;;;;14.50;1.70;;;9.60;99.90;;;;;;5052129;28;20449;-75
2021/12/10 03:05:39;;;;;;;15.43;2.47;;;9.60;99.90;;;;;;5052548;28;20144;-75
2021/12/10 03:08:09;;;;;;;13.68;1.55;;;9.50;99.90;;;;;;5051969;28;20497;-75
2021/12/10 03:10:36;;;;;;;12.30;1.83;;;9.50;99.90;;;;;;5051850;28;20107;-76
2021/12/10 03:13:04;;;;;;;8.25;1.40;;;9.50;99.90;;;;;;5052370;28;20040;-76
2021/12/10 03:15:32;;;;;;;12.63;1.60;;;9.50;99.90;;;;;;5051851;28;20389;-75
2021/12/10 03:18:00;;;;;;;12.98;1.95;;;9.50;99.90;;;;;;5033750;28;20029;-76
2021/12/10 03:20:29;;;;;;;19.73;3.03;;;9.60;99.90;;;;;;5052185;28;20028;-75
2021/12/10 03:22:57;;;;;;;13.68;1.60;;;9.60;99.90;;;;;;5034728;28;20404;-74
2021/12/10 03:25:24;;;;;;;10.50;1.50;;;9.50;99.90;;;;;;5033858;28;20064;-75
2021/12/10 03:27:51;;;;;;;13.60;1.88;;;9.50;99.90;;;;;;5051682;28;20072;-75
2021/12/10 03:30:25;;;;;;;13.15;1.60;;;9.50;99.90;;;;;;5051492;28;20449;-75
2021/12/10 03:32:52;;;;;;;11.23;1.60;;;9.50;99.90;;;;;;5051923;28;20035;-73
2021/12/10 03:35:43;;;;;;;10.13;1.95;;;9.50;99.90;;;;;;5051949;28;20331;-73
2021/12/10 03:38:18;;;;;;;18.42;1.92;;;9.50;99.90;;;;;;5051601;28;20100;-75
2021/12/10 03:40:46;;;;;;;16.13;2.25;;;9.50;99.90;;;;;;5017697;28;20029;-75
2021/12/10 03:43:12;;;;;;;16.52;1.98;;;9.40;99.90;;;;;;5034276;28;20437;-75
2021/12/10 03:45:44;;;;;;;14.70;1.77;;;9.50;99.90;;;;;;5033308;28;20036;-75
2021/12/10 03:48:16;;;;;;;15.13;1.63;;;9.40;99.90;;;;;;5051418;28;20029;-76
2021/12/10 03:50:43;;;;;;;18.02;2.20;;;9.40;99.90;;;;;;5051742;28;20067;-75
2021/12/10 03:53:12;;;;;;;11.48;1.52;;;9.30;99.90;;;;;;5050979;28;20041;-75
2021/12/10 03:55:40;;;;;;;10.40;1.83;;;9.40;99.90;;;;;;5050295;28;20037;-75
2021/12/10 03:58:09;;;;;;;13.43;1.75;;;9.30;99.90;;;;;;5051593;28;20032;-75
2021/12/10 04:00:41;;;;;;;11.65;1.80;;;9.40;99.90;;;;;;5051476;28;20017;-76
2021/12/10 04:03:09;;;;;;;12.23;1.88;;;9.40;99.90;;;;;;5052086;28;20053;-75
2021/12/10 04:05:36;;;;;;;13.57;1.55;;;9.40;99.90;;;;;;5052022;28;20021;-75
2021/12/10 04:08:03;;;;;;;7.85;2.05;;;9.40;99.90;;;;;;5034549;28;20021;-75
2021/12/10 04:10:29;;;;;;;10.38;1.90;;;9.40;99.90;;;;;;5051904;28;20089;-75
2021/12/10 04:12:55;;;;;;;18.65;2.50;;;9.40;99.90;;;;;;5051815;28;20049;-75
2021/12/10 04:15:23;;;;;;;9.80;1.90;;;9.40;99.90;;;;;;5055739;28;20147;-74
2021/12/10 04:17:53;;;;;;;11.43;1.52;;;9.50;99.90;;;;;;5054623;28;20048;-75
2021/12/10 04:20:23;;;;;;;10.13;1.88;;;9.50;99.90;;;;;;5037734;28;20041;-75
2021/12/10 04:22:50;;;;;;;11.50;1.65;;;9.50;99.90;;;;;;5055332;28;20103;-75
2021/12/10 04:25:20;;;;;;;11.43;1.60;;;9.60;99.90;;;;;;5056214;28;20021;-74
2021/12/10 04:27:49;;;;;;;8.77;1.40;;;9.60;99.90;;;;;;5056018;28;20024;-74
2021/12/10 04:30:16;;;;;;;12.10;1.45;;;9.60;99.90;;;;;;5055447;28;20060;-75
2021/12/10 04:32:43;;;;;;;11.88;1.58;;;9.60;99.90;;;;;;5055919;28;20036;-74
2021/12/10 04:35:10;;;;;;;;;;;9.60;99.90;;;;;;5056097;28;20495;-75
2021/12/10 04:37:37;;;;;;;10.63;2.13;;;9.60;99.90;;;;;;5055641;28;19905;-74
2021/12/10 04:40:09;;;;;;;12.48;1.60;;;9.60;99.90;;;;;;5055925;28;20021;-74
2021/12/10 04:42:35;;;;;;;7.68;1.67;;;9.60;99.90;;;;;;5038241;28;20358;-75
2021/12/10 04:45:05;;;;;;;10.07;1.47;;;9.60;99.90;;;;;;5055505;28;20029;-74
2021/12/10 04:47:33;;;;;;;13.55;1.85;;;9.60;99.90;;;;;;5021517;28;20271;-75
2021/12/10 04:50:00;;;;;;;13.65;1.65;;;9.60;99.90;;;;;;5055339;28;20523;-75
2021/12/10 04:52:27;;;;;;;11.20;1.33;;;9.60;99.90;;;;;;5054778;28;20052;-77
2021/12/10 04:54:53;;;;;;;11.73;2.05;;;9.60;99.90;;;;;;5055735;28;20020;-75
2021/12/10 04:57:19;;;;;;;13.00;1.90;;;9.60;99.90;;;;;;5055520;28;20021;-75
2021/12/10 04:59:46;;;;;;;11.18;1.65;;;9.60;99.90;;;;;;5055144;28;20067;-75
2021/12/10 05:02:16;;;;;;;10.73;1.85;;;9.60;99.90;;;;;;5055139;28;20550;-75
2021/12/10 05:04:44;;;;;;;13.25;1.95;;;9.60;99.90;;;;;;5054958;28;20427;-75
2021/12/10 05:07:12;;;;;;;15.32;1.88;;;9.60;99.90;;;;;;5055057;28;20382;-75
2021/12/10 05:09:38;;;;;;;10.40;1.40;;;9.50;99.90;;;;;;5055206;28;20025;-76
2021/12/10 05:12:05;;;;;;;15.43;1.83;;;9.40;99.90;;;;;;5054754;28;20385;-75
2021/12/10 05:14:33;;;;;;;8.18;1.15;;;9.40;99.90;;;;;;5055334;28;20029;-75
2021/12/10 05:17:04;;;;;;;10.95;1.45;;;9.40;99.90;;;;;;5054757;28;20100;-73
2021/12/10 05:19:31;;;;;;;7.95;1.25;;;9.40;99.90;;;;;;5054747;28;20500;-74
2021/12/10 05:22:02;;;;;;;11.68;1.50;;;9.40;99.90;;;;;;5054683;28;20039;-75
2021/12/10 05:24:30;;;;;;;8.43;1.27;;;9.40;99.90;;;;;;5054427;28;20048;-74
2021/12/10 05:26:57;;;;;;;6.90;1.35;;;9.40;99.90;;;;;;5054745;28;20029;-74
2021/12/10 05:29:23;;;;;;;12.30;1.95;;;9.40;99.90;;;;;;5054400;28;20053;-74
2021/12/10 05:31:51;;;;;;;13.53;1.67;;;9.30;99.90;;;;;;5054694;28;20032;-76
2021/12/10 05:34:18;;;;;;;14.65;1.60;;;9.30;99.90;;;;;;5054565;28;20449;-74
2021/12/10 05:36:45;;;;;;;9.80;1.65;;;9.20;99.90;;;;;;5054488;28;20021;-74
2021/12/10 05:39:13;;;;;;;12.80;1.98;;;9.30;99.90;;;;;;5054443;28;20059;-73
2021/12/10 05:41:39;;;;;;;11.63;1.45;;;9.30;99.90;;;;;;5054316;28;20021;-74
2021/12/10 05:44:05;;;;;;;5.10;0.98;;;9.40;99.90;;;;;;5054733;28;20028;-76
2021/12/10 05:46:33;;;;;;;8.73;1.70;;;9.40;99.90;;;;;;5054479;28;20021;-74
2021/12/10 05:49:00;;;;;;;6.82;1.42;;;9.40;99.90;;;;;;5054753;28;20033;-74
2021/12/10 05:51:26;;;;;;;;;;;9.40;99.90;;;;;;5054488;28;20021;-74
2021/12/10 05:53:57;;;;;;;4.40;0.90;;;9.40;99.90;;;;;;5053900;28;19920;-72
2021/12/10 05:56:23;;;;;;;6.50;1.20;;;9.50;99.90;;;;;;5054457;28;20255;-72
2021/12/10 05:58:50;;;;;;;8.07;1.20;;;9.60;99.90;;;;;;5054027;28;20600;-74
2021/12/10 06:01:18;;;;;;;9.57;1.05;;;9.80;99.90;;;;;;5036118;28;20021;-73
2021/12/10 06:03:52;;;;;;;8.23;2.10;;;9.80;99.90;;;;;;5054081;28;20029;-73
2021/12/10 06:06:27;;;;;;;9.13;1.50;;;9.80;99.90;;;;;;5054051;28;20021;-73
2021/12/10 06:08:53;;;;;;;7.72;1.00;;;9.80;99.90;;;;;;5054408;28;20454;-73
2021/12/10 06:11:21;;;;;;;11.02;1.40;;;9.70;99.90;;;;;;5053317;28;20090;-73
2021/12/10 06:13:48;;;;;;;6.10;1.20;;;9.80;99.90;;;;;;5053747;28;20492;-73
2021/12/10 06:16:15;;;;;;;6.22;1.10;;;9.90;99.90;;;;;;5053482;28;20025;-73
2021/12/10 06:18:41;;;;;;;8.57;1.48;;;9.90;99.90;;;;;;5054313;28;20025;-73
2021/12/10 06:21:14;;;;;;;5.53;1.20;;;9.90;99.90;;;;;;5035965;28;20377;-69
2021/12/10 06:23:41;;;;;;;9.13;1.70;;;9.90;99.90;;;;;;5051747;28;20398;-73
2021/12/10 06:26:08;;;;;;;7.85;1.05;;;9.90;99.90;;;;;;5053520;28;20025;-75
2021/12/10 06:28:35;;;;;;;6.68;1.20;;;10.00;99.90;;;;;;5018933;28;20031;-73
2021/12/10 06:31:02;;;;;;;6.95;1.20;;;10.00;99.90;;;;;;5052380;28;20053;-73
2021/12/10 06:33:29;;;;;;;8.73;1.50;;;10.00;99.90;;;;;;5052844;28;20378;-74
2021/12/10 06:36:00;;;;;;;7.53;1.15;;;10.00;99.90;;;;;;5052334;28;20132;-75
2021/12/10 06:38:27;;;;;;;8.95;1.25;;;10.10;99.90;;;;;;5052915;28;20021;-73
2021/12/10 06:40:54;;;;;;;14.05;1.40;;;10.10;99.90;;;;;;5034742;28;20029;-73
2021/12/10 06:43:22;;;;;;;8.82;1.40;;;10.00;99.90;;;;;;5052183;28;20116;-74
2021/12/10 06:45:51;;;;;;;11.75;1.35;;;10.00;99.90;;;;;;5052485;28;20056;-75
2021/12/10 06:48:19;;;;;;;7.03;1.30;;;10.00;99.90;;;;;;5052029;28;20025;-77
2021/12/10 06:50:49;;;;;;;10.18;2.25;;;10.10;99.90;;;;;;5052661;28;20090;-75
2021/12/10 06:53:20;;;;;;;7.18;1.60;;;10.30;99.90;;;;;;5051411;28;20115;-74
2021/12/10 06:55:48;;;;;;;11.68;2.20;;;10.90;99.90;;;;;;5051847;28;20030;-75
2021/12/10 06:58:16;;;;;;;7.68;2.40;;;11.60;99.90;;;;;;5051861;28;20025;-75
2021/12/10 07:01:07;;;;;;;10.52;2.20;;;12.00;99.90;;;;;;5017676;28;20029;-76
2021/12/10 07:03:36;;;;;;;9.75;1.80;;;12.10;99.90;;;;;;5031948;28;20033;-76
2021/12/10 07:06:05;;;;;;;11.68;1.58;;;12.00;99.90;;;;;;5033982;28;20493;-75
2021/12/10 07:08:35;;;;;;;15.48;1.98;;;11.70;99.90;;;;;;5052669;28;20119;-77
2021/12/10 07:11:02;;;;;;;11.63;2.72;;;11.40;99.90;;;;;;5051699;28;20032;-75
2021/12/10 07:13:29;;;;;;;9.00;1.88;;;11.20;99.90;;;;;;5052122;28;20040;-76
2021/12/10 07:15:55;;;;;;;5.50;1.10;;;11.10;99.90;;;;;;5052003;28;20421;-75
2021/12/10 07:18:22;;;;;;;6.78;1.35;;;10.80;99.90;;;;;;5051928;28;20120;-75
2021/12/10 07:20:51;;;;;;;7.00;1.42;;;10.20;99.90;;;;;;5052665;28;20021;-75
2021/12/10 07:23:18;;;;;;;5.93;1.20;;;9.90;99.90;;;;;;5051849;28;20029;-75
2021/12/10 07:25:44;;;;;;;7.03;1.00;;;9.60;99.90;;;;;;5052625;28;20029;-76
2021/12/10 07:28:10;;;;;;;9.07;1.57;;;9.50;99.90;;;;;;5034361;28;20127;-75
2021/12/10 07:30:37;;;;;;;11.30;2.97;;;9.40;99.90;;;;;;5052013;28;20103;-76
2021/12/10 07:33:04;;;;;;;6.65;1.40;;;9.30;99.90;;;;;;5052355;28;20033;-77
2021/12/10 07:35:31;;;;;;;;;;;9.20;99.90;;;;;;5034001;28;20323;-76
2021/12/10 07:37:59;;;;;;;5.53;1.42;;;9.10;99.90;;;;;;5052694;28;19967;-76
2021/12/10 07:40:30;;;;;;;11.20;1.77;;;9.10;99.90;;;;;;5051886;28;20021;-78
2021/12/10 07:42:57;;;;;;;11.68;2.33;;;9.10;99.90;;;;;;5052284;28;20485;-75
2021/12/10 07:45:23;;;;;;;;;;;9.00;99.90;;;;;;5035177;28;20080;-74
2021/12/10 07:47:52;;;;;;;7.95;1.90;;;9.00;99.90;;;;;;5053250;28;19912;-74
2021/12/10 07:50:26;;;;;;;10.48;1.50;;;9.00;99.90;;;;;;5055907;28;20025;-75
2021/12/10 07:52:55;;;;;;;9.30;1.40;;;8.90;99.90;;;;;;5056400;28;20029;-75
2021/12/10 07:55:25;;;;;;;6.07;1.52;;;8.90;99.90;;;;;;5055880;28;20027;-74
2021/12/10 07:57:52;;;;;;;5.93;1.50;;;8.80;99.90;;;;;;5056870;28;20028;-75
2021/12/10 08:00:21;;;;;;;9.25;1.38;;;8.80;99.90;;;;;;5037925;28;20025;-77
2021/12/10 08:02:48;;;;;;;11.00;1.73;;;9.00;99.90;;;;;;5038250;28;20492;-76
2021/12/10 08:05:15;;;;;;;5.90;1.73;;;8.90;99.90;;;;;;5055924;28;20025;-75
2021/12/10 08:07:42;;;;;;;6.93;1.50;;;8.90;99.90;;;;;;5055792;28;20029;-74
2021/12/10 08:10:11;;;;;;;7.60;2.22;;;9.00;99.90;;;;;;5055880;28;20079;-76
2021/12/10 08:12:38;;;;;;;8.63;1.70;;;9.20;99.90;;;;;;5055634;28;20033;-76
2021/12/10 08:15:09;;;;;;;10.20;2.30;;;9.40;99.90;;;;;;5055327;28;20032;-75
2021/12/10 08:17:39;;;;;;;6.97;1.65;;;9.40;99.90;;;;;;5055109;28;20103;-73
2021/12/10 08:20:08;;;;;;;6.38;1.75;;;9.40;99.90;;;;;;5055172;28;20120;-73
2021/12/10 08:22:35;;;;;;;11.40;1.98;;;9.30;99.90;;;;;;5055312;28;20099;-73
2021/12/10 08:25:04;;;;;;;8.73;1.83;;;9.30;99.90;;;;;;5055392;28;20489;-70
2021/12/10 08:27:33;;;;;;;6.53;1.67;;;9.40;99.90;;;;;;5054998;28;20103;-74
2021/12/10 08:30:03;;;;;;;7.55;1.40;;;9.50;99.90;;;;;;5034355;28;20061;-76
2021/12/10 08:32:32;;;;;;;11.35;1.60;;;9.60;99.90;;;;;;5035422;28;20037;-74
2021/12/10 08:35:03;;;;;;;9.20;2.05;;;9.70;99.90;;;;;;5035458;28;20017;-76
2021/12/10 08:37:30;;;;;;;7.55;2.05;;;9.90;99.90;;;;;;5035874;28;20041;-80
2021/12/10 08:39:56;;;;;;;9.73;1.63;;;9.90;99.90;;;;;;5035857;28;20034;-74
2021/12/10 08:42:23;;;;;;;10.40;2.47;;;10.00;99.90;;;;;;5035480;28;20163;-74
2021/12/10 08:44:51;;;;;;;10.75;1.73;;;9.90;99.90;;;;;;5033929;28;20060;-72
2021/12/10 08:47:17;;;;;;;7.00;1.88;;;9.80;99.90;;;;;;5017591;28;20359;-75
2021/12/10 08:49:44;;;;;;;6.40;1.55;;;9.60;99.90;;;;;;5035124;28;20075;-69
2021/12/10 08:52:11;;;;;;;9.57;2.03;;;9.50;99.90;;;;;;5033108;28;20033;-72
2021/12/10 08:54:38;;;;;;;8.05;2.22;;;9.30;99.90;;;;;;5035265;28;20037;-72
2021/12/10 08:57:06;;;;;;;6.55;1.70;;;9.20;99.90;;;;;;5034372;28;20029;-74
2021/12/10 08:59:36;;;;;;;9.20;1.98;;;9.10;99.90;;;;;;5033357;28;20037;-74
2021/12/10 09:02:04;;;;;;;12.63;2.13;;;9.10;99.90;;;;;;5034065;28;20033;-75
2021/12/10 09:04:32;;;;;;;5.72;1.48;;;9.10;99.90;;;;;;5034275;28;20021;-76
2021/12/10 09:07:06;;;;;;;10.02;1.67;;;9.20;99.90;;;;;;5034904;28;20079;-69
2021/12/10 09:09:35;;;;;;;5.93;1.80;;;9.30;99.90;;;;;;5034739;28;20390;-74
2021/12/10 09:12:07;;;;;;;9.02;1.88;;;9.50;99.90;;;;;;5034996;28;20079;-71
2021/12/10 09:14:43;;;;;;;11.52;1.40;;;9.70;99.90;;;;;;5035507;28;20488;-70
2021/12/10 09:17:16;;;;;;;11.93;3.10;;;9.90;99.90;;;;;;5033914;28;20033;-68
2021/12/10 09:19:43;;;;;;;10.45;2.05;;;10.10;99.90;;;;;;5033247;28;20073;-73
2021/12/10 09:22:09;;;;;;;;;;;10.30;99.90;;;;;;5035097;28;20025;-73
2021/12/10 09:24:37;;;;;;;6.53;1.47;;;10.40;99.90;;;;;;5033340;28;20281;-74
2021/12/10 09:27:04;;;;;;;12.35;1.80;;;10.60;99.90;;;;;;5034582;28;20700;-72
2021/12/10 09:29:44;;;;;;;7.88;1.45;;;10.70;99.90;;;;;;5037900;28;20379;-73
2021/12/10 09:32:13;;;;;;;12.23;1.90;;;10.80;99.90;;;;;;5054436;28;20040;-73
2021/12/10 09:34:40;;;;;;;9.50;2.13;;;10.80;99.90;;;;;;5054607;28;20017;-73
2021/12/10 09:37:07;;;;;;;13.35;2.35;;;10.90;99.90;;;;;;5036035;28;20446;-73
2021/12/10 09:39:35;;;;;;;9.23;2.40;;;10.90;99.90;;;;;;5053863;28;20021;-73
2021/12/10 09:42:03;;;;;;;12.68;4.07;;;11.00;99.90;;;;;;5053845;28;20033;-71
2021/12/10 09:44:29;;;;;;;16.83;4.25;;;11.00;99.90;;;;;;5054249;28;20053;-74
2021/12/10 09:46:56;;;;;;;16.83;4.15;;;11.10;99.90;;;;;;5053989;28;20029;-73
2021/12/10 09:49:24;;;;;;;7.30;1.98;;;11.30;99.90;;;;;;5053958;28;20024;-71
2021/12/10 09:51:55;;;;;;;6.63;2.08;;;11.40;99.90;;;;;;5053725;28;20439;-73
2021/12/10 09:54:24;;;;;;;10.23;1.70;;;11.60;99.90;;;;;;5053623;28;20107;-72
2021/12/10 09:56:59;;;;;;;10.82;2.47;;;11.70;99.90;;;;;;5035174;28;20343;-73
2021/12/10 09:59:25;;;;;;;10.30;2.03;;;11.80;99.90;;;;;;5053149;28;20033;-74
2021/12/10 10:01:54;;;;;;;12.63;2.80;;;11.90;99.90;;;;;;5053723;28;20086;-71
2021/12/10 10:04:25;;;;;;;10.38;2.10;;;12.10;99.90;;;;;;5053271;28;20029;-74
2021/12/10 10:06:59;;;;;;;8.20;1.73;;;12.20;99.90;;;;;;5053386;28;20385;-72
2021/12/10 10:09:27;;;;;;;13.10;1.92;;;12.30;99.90;;;;;;5052843;28;20075;-72
2021/12/10 10:12:01;;;;;;;8.90;1.92;;;12.50;99.90;;;;;;5051757;28;20400;-72
2021/12/10 10:14:27;;;;;;;8.82;1.60;;;12.60;99.90;;;;;;5035847;28;20036;-70
2021/12/10 10:16:54;;;;;;;8.10;1.20;;;12.70;99.90;;;;;;5034765;28;20394;-72
2021/12/10 10:19:23;;;;;;;12.70;2.03;;;12.80;99.90;;;;;;5052677;28;20033;-72
2021/12/10 10:21:57;;;;;;;8.75;1.58;;;13.00;99.90;;;;;;5035262;28;20033;-71
2021/12/10 10:24:28;;;;;;;8.82;1.50;;;13.00;99.90;;;;;;5053394;28;20025;-71
2021/12/10 10:27:02;;;;;;;8.38;1.38;;;13.20;99.90;;;;;;5053172;28;20488;-71
2021/12/10 10:29:32;;;;;;;8.25;1.42;;;13.20;99.90;;;;;;5053394;28;20056;-73
2021/12/10 10:32:09;;;;;;;10.50;1.48;;;13.20;99.90;;;;;;5035048;28;20040;-73
2021/12/10 10:34:37;;;;;;;;;;;13.20;99.90;;;;;;5053652;28;20025;-71
2021/12/10 10:37:03;;;;;;;10.40;1.42;;;13.20;99.90;;;;;;5052441;28;20007;-70
2021/12/10 10:39:33;;;;;;;10.60;1.60;;;13.10;99.90;;;;;;5034856;28;20031;-71
2021/12/10 10:42:02;;;;;;;8.07;1.52;;;13.00;99.90;;;;;;5034660;28;20029;-70
2021/12/10 10:44:28;;;;;;;8.30;1.30;;;13.00;99.90;;;;;;5053082;28;20025;-70
2021/12/10 10:46:57;;;;;;;7.35;1.10;;;12.90;99.90;;;;;;5052725;28;20090;-72
2021/12/10 10:49:32;;;;;;;6.75;1.10;;;12.80;99.90;;;;;;5034619;28;20388;-69
2021/12/10 10:52:10;;;;;;;7.70;1.50;;;12.80;99.90;;;;;;5052512;28;20025;-74
2021/12/10 10:54:36;;;;;;;8.40;1.35;;;12.80;99.90;;;;;;5053271;28;20075;-73
2021/12/10 10:57:16;;;;;;;8.85;1.20;;;12.80;99.90;;;;;;5034797;28;20021;-71
2021/12/10 10:59:45;;;;;;;10.27;1.45;;;12.80;99.90;;;;;;5036011;28;20453;-70
2021/12/10 11:02:12;;;;;;;12.23;1.40;;;12.80;99.90;;;;;;5034795;28;20036;-72
2021/12/10 11:04:42;;;;;;;8.75;1.70;;;12.70;99.90;;;;;;5051774;28;20028;-72
2021/12/10 11:07:22;;;;;;;4.80;1.20;;;12.80;99.90;;;;;;5033898;28;20029;-73
2021/12/10 11:10:02;;;;;;;8.00;1.50;;;12.70;99.90;;;;;;5052585;28;20112;-73
2021/12/10 11:12:34;;;;;;;9.13;1.60;;;12.60;99.90;;;;;;5051694;28;20033;-72
2021/12/10 11:15:06;;;;;;;8.82;1.50;;;12.50;99.90;;;;;;5052027;28;20036;-71
2021/12/10 11:17:48;;;;;;;6.75;1.80;;;12.50;99.90;;;;;;5051968;28;20025;-72
2021/12/10 11:20:25;;;;;;;6.72;1.10;;;12.30;99.90;;;;;;5050876;28;20377;-71
2021/12/10 11:23:01;;;;;;;7.40;1.45;;;12.20;99.90;;;;;;5033197;28;20552;-72
2021/12/10 11:25:35;;;;;;;10.38;1.58;;;12.10;99.90;;;;;;5052122;28;20036;-72
2021/12/10 11:28:26;;;;;;;10.60;1.67;;;12.10;99.90;;;;;;5033787;28;20025;-71
2021/12/10 11:31:02;;;;;;;14.98;1.70;;;12.10;99.90;;;;;;5033809;28;20056;-70
2021/12/10 11:33:32;;;;;;;11.95;1.55;;;12.10;99.90;;;;;;5033694;28;20164;-72
2021/12/10 11:36:12;;;;;;;9.65;1.88;;;12.10;99.90;;;;;;5051661;28;20025;-72
2021/12/10 11:38:39;;;;;;;7.43;1.55;;;12.10;99.90;;;;;;5033957;28;20025;-69
2021/12/10 11:41:15;;;;;;;10.27;2.17;;;12.10;99.90;;;;;;5051938;28;20029;-71
2021/12/10 11:43:44;;;;;;;10.25;2.55;;;12.10;99.90;;;;;;5051878;28;20373;-71
2021/12/10 11:49:00;;;;;;;12.13;1.50;;;12.10;99.90;;;;;;5051578;28;20025;-72
2021/12/10 11:51:33;;;;;;;11.93;2.00;;;12.00;99.90;;;;;;5051511;28;20041;-71
2021/12/10 11:54:24;;;;;;;11.88;2.83;;;12.00;99.90;;;;;;5052320;28;20144;-71
2021/12/10 11:57:08;;;;;;;13.07;2.05;;;12.10;99.90;;;;;;4970941;28;20193;-71
2021/12/10 11:59:49;;;;;;;9.35;1.63;;;12.00;99.90;;;;;;4971109;28;20042;-70
2021/12/10 12:02:44;;;;;;;13.68;2.08;;;11.90;99.90;;;;;;4970505;28;20027;-73
2021/12/10 12:05:14;;;;;;;8.15;1.60;;;11.90;99.90;;;;;;4970050;28;20324;-71
2021/12/10 12:07:43;;;;;;;10.57;1.55;;;11.90;99.90;;;;;;4970201;28;20047;-71
2021/12/10 12:10:31;;;;;;;10.55;1.92;;;11.90;99.90;;;;;;4953478;28;20073;-71
2021/12/10 12:13:03;;;;;;;8.80;1.55;;;11.90;99.90;;;;;;4970291;28;20047;-72
2021/12/10 12:15:34;;;;;;;8.48;1.50;;;12.00;99.90;;;;;;4970032;28;20031;-71
2021/12/10 12:18:04;;;;;;;9.57;1.65;;;12.00;99.90;;;;;;4970074;28;20026;-73
2021/12/10 12:20:35;;;;;;;11.25;1.60;;;12.00;99.90;;;;;;4970023;28;20045;-71
2021/12/10 12:26:11;;;;;;;12.80;1.85;;;12.00;99.90;;;;;;4970353;28;20443;-71
2021/12/10 12:28:43;;;;;;;10.75;1.52;;;12.00;99.90;;;;;;4970105;28;20031;-73
2021/12/10 12:31:11;;;;;;;9.15;1.60;;;11.90;99.90;;;;;;4970048;28;20063;-72
2021/12/10 12:34:01;;;;;;;12.48;1.50;;;12.00;99.90;;;;;;5004671;28;20049;-70
2021/12/10 12:36:37;;;;;;;12.88;2.50;;;12.00;99.90;;;;;;5053878;28;20025;-71
2021/12/10 12:39:08;;;;;;;13.43;2.00;;;12.00;99.90;;;;;;5055488;28;20043;-71
2021/12/10 12:41:47;;;;;;;20.67;2.63;;;12.10;99.90;;;;;;5055324;28;20032;-72
2021/12/10 12:44:23;;;;;;;8.57;1.80;;;12.10;99.90;;;;;;5054985;28;20027;-71
2021/12/10 12:47:12;;;;;;;12.17;2.40;;;12.10;99.90;;;;;;5037041;28;20083;-73
2021/12/10 12:49:38;;;;;;;14.13;1.58;;;12.10;99.90;;;;;;5054679;28;20381;-71
2021/12/10 12:52:08;;;;;;;9.30;1.40;;;12.10;99.90;;;;;;5053985;28;20029;-71
2021/12/10 12:54:39;;;;;;;9.60;1.88;;;12.10;99.90;;;;;;5055025;28;20025;-70
2021/12/10 12:57:07;;;;;;;16.27;3.40;;;12.10;99.90;;;;;;5054984;28;20040;-69
2021/12/10 12:59:34;;;;;;;8.30;2.10;;;12.10;99.90;;;;;;5036305;28;20029;-70
2021/12/10 13:02:04;;;;;;;16.92;2.58;;;12.10;99.90;;;;;;5054336;28;20029;-69
2021/12/10 13:04:40;;;;;;;16.13;2.15;;;12.10;99.90;;;;;;5054666;28;20100;-70
2021/12/10 13:07:18;;;;;;;13.05;1.95;;;12.10;99.90;;;;;;5054630;28;20376;-68
2021/12/10 13:09:52;;;;;;;16.67;2.58;;;12.00;99.90;;;;;;5054923;28;20365;-69
2021/12/10 13:13:10;;;;;;;9.23;2.05;;;12.10;99.90;;;;;;5054566;28;20535;-70
2021/12/10 13:15:12;;;;;;;16.88;2.22;;;12.00;99.90;;;;;;5046441;28;20073;-69
2021/12/10 13:17:50;;;;;;;9.23;2.03;;;12.00;99.90;;;;;;5055366;28;20048;-70
2021/12/10 13:20:24;;;;;;;20.27;2.80;;;12.00;99.90;;;;;;5054723;28;20323;-70
2021/12/10 13:22:54;;;;;;;13.00;1.95;;;11.90;99.90;;;;;;5054632;28;20025;-69